Cabazon, California
Current Conditions -  °F | °C
As of 4:53 PM on Tuesday 21 Oct 2014 (Local Time) from KPSP Reporting Station
Clear Clear  
Wind Chill: 93°   Ceiling: Unl
Heat Index: 93°   Visibility: 10mi
Dew Point: 34°   Wind: 3mph
Humidity: 12%   Direction: NA
Pressure: 29.74"   Gusts: NA
Location:  33.92°N, 116.79°W
Report Text: KPSP 212353Z VRB03KT 10SM CLR 34/01 A2974 RMK AO2 SLP069 T03390011 10350 20300 56014 $
Loading
Personal Weather Stations






























Interactive Weather Map
Tropical Storm Tracking
New forecast layout! Learn more

10-Day Weather Forecast

Advertisements
Track Severe Weather on mobile